NCAR-RAP Real-Time Weather Data

Output produced by METARs form (17 December 2018  08:01 UTC)
found at http://weather.rap.ucar.edu/surface/
 
RJSA 170700Z 22005KT 9999 FEW030 SCT070 BKN090 02/M01 Q1004
RJSA 170600Z VRB02KT 9999 FEW020 SCT070 BKN100 04/M02 Q1004
RJSA 170500Z 29009KT 260V340 9999 FEW020 SCT070 04/M02 Q1004
RJSA 170400Z 28011KT 250V320 9999 FEW020 05/M01 Q1005
RJSA 170300Z 25008KT 220V290 9999 FEW030 04/M01 Q1005
RJSA 170200Z 23012KT 9999 FEW020 04/M01 Q1006
RJSA 170100Z 23010KT 9999 FEW020 04/M01 Q1007
RJSA 170000Z 22009KT 9999 FEW020 03/M00 Q1007
RJSA 162300Z 22007KT 9999 FEW020 SCT040 03/00 Q1007
RJSA 162200Z 24008KT 9999 FEW020 SCT040 02/M01 Q1007
RJSA 162140Z 21011KT 9999 FEW020 SCT040 03/00 Q1007 RMK 1CU020 3CU040 A2975
RJSA 161212Z 22017G28KT 9999 FEW030 SCT100 BKN150 05/M02 Q1009 RMK 1CU030 3AC100 6AC150 A2981
RJSA 161200Z 21016KT 9999 FEW030 SCT100 BKN150 05/M02 Q1009
RJSA 161100Z 21014KT 9999 FEW030 SCT100 BKN150 04/M02 Q1011
RJSA 161000Z 21012KT 9999 FEW030 SCT100 BKN130 04/M01 Q1012
RJSA 160900Z 20012KT 9999 FEW030 SCT100 BKN130 04/M00 Q1012
RJSA 160800Z 20011KT 9999 FEW030 SCT070 BKN100 04/00 Q1013
RJSA 160700Z 20012KT 9999 FEW030 SCT130 BKN150 04/01 Q1014
RJSA 160600Z 20014KT 9999 FEW020 SCT040 BKN150 03/01 Q1015
RJSA 160500Z 19013KT 9999 FEW020 SCT040 BKN160 03/00 Q1015
RJSA 160400Z 19010KT 9999 FEW020 SCT040 BKN/// 03/M00 Q1017
RJSA 160300Z 19009KT 9999 FEW020 SCT040 BKN050 03/M00 Q1018
RJSA 160200Z 17004KT 9999 FEW020 SCT030 BKN040 03/M01 Q1019
RJSA 160100Z 15007KT 9999 FEW020 SCT040 BKN050 02/M01 Q1020
RJSA 160000Z 17005KT 9999 FEW020 SCT030 BKN040 01/M02 Q1021
RJSA 151200Z 19006KT 9999 FEW020 BKN040 M02/M05 Q1024
RJSA 151100Z 20012KT 9999 FEW020 BKN040 M01/M05 Q1024
RJSA 151000Z 21014KT 9999 -SHSN FEW015 SCT020 BKN035 M01/M05 Q1025
RJSA 150900Z 20009KT 9999 -SHSN FEW015 SCT020 BKN030 M01/M05 Q1025
RJSA 150800Z 21012KT 9999 -SHSN FEW010 SCT020 BKN035 M02/M05 Q1024
RJSA 150700Z 21007KT 9999 -SHSN FEW005 SCT020 BKN030 M02/M04 Q1024
RJSA 150633Z 20009KT 5000 -SHSN FEW005 SCT010 BKN025 M02/M04 Q1024 RMK 1ST005 3ST010 6CU025 A3025
RJSA 150628Z 20009KT 4500 -SHSN FEW005 SCT010 BKN025 M02/M04 Q1024 RMK 1ST005 3ST010 6CU025 A3025
RJSA 150607Z 20009KT 5000 -SHSN FEW005 SCT010 BKN025 M02/M04 Q1024 RMK 1ST005 3ST010 6CU025 A3025
RJSA 150600Z 21009KT 4500 -SHSN FEW003 SCT010 BKN025 M02/M04 Q1024
RJSA 150500Z 23011KT 5000 -SHSN FEW005 SCT015 BKN030 M02/M04 Q1024
RJSA 150443Z 23011KT 4000 -SHSN FEW003 SCT009 BKN030 M02/M05 Q1024 RMK 1ST003 3ST009 5CU030 A3024
RJSA 150432Z 23012KT 5000 -SHSN FEW005 SCT010 BKN030 M02/M04 Q1024 RMK 1ST005 3ST010 5CU030 A3024
RJSA 150427Z 23012KT 4000 -SHSN FEW003 SCT006 BKN020 M02/M04 Q1024 RMK 1ST003 3ST006 5CU020 A3024
RJSA 150423Z 23013KT 3000 -SHSN FEW002 SCT005 BKN015 M02/M04 Q1024 RMK 1ST002 3ST005 5CU015 A3024
RJSA 150417Z 24014KT 1500 R24/1000VP1800U -SHSN FEW002 SCT003 BKN008 M02/M03 Q1024 RMK 1ST002 3ST003 5ST008 A3024
RJSA 150412Z 24014KT 1000 R24/0750VP1800U -SHSN FEW002 SCT003 BKN008 M02/M03 Q1024 RMK 1ST002 3ST003 5ST008 A3024
RJSA 150408Z 24014KT 1000 R24/0750V1400D -SHSN FEW002 SCT003 BKN006 M02/M03 Q1024 RMK 1ST002 3ST003 5ST006 A3024
RJSA 150404Z 24014KT 0600 R24/0800VP1800D SHSN FEW002 SCT004 BKN007 M02/M03 Q1024 RMK 1ST002 3ST004 5ST007 A3024
RJSA 150402Z 24013KT 0600 R24/1000VP1800D SHSN FEW002 SCT004 BKN007 M02/M03 Q1024 RMK 1ST002 3ST004 5ST007 A3024
RJSA 150400Z 24013KT 0700 R24/1200VP1800D SHSN FEW002 SCT004 BKN007 M02/M04 Q1024
RJSA 150334Z 24011KT 1000 R24/P1800U -SHSN FEW002 SCT004 BKN009 M02/M03 Q1024 RMK 1ST002 3ST004 5ST009 A3024
RJSA 150329Z 24012KT 0900 R24/P1800D SHSN FEW002 SCT004 BKN007 M02/M03 Q1024 RMK 1ST002 3ST004 5ST007 A3024
RJSA 150325Z 24011KT 1000 R24/P1800N -SHSN FEW003 SCT005 BKN010 M02/M03 Q1024 RMK 1ST003 3ST005 5ST010 A3024
RJSA 150306Z 23011KT 1600 -SHSN FEW003 SCT005 BKN015 M02/M03 Q1024 RMK 1ST003 3ST005 5CU015 A3024
RJSA 150300Z 23011KT 1400 R24/P1800N -SHSN FEW003 SCT005 BKN015 M02/M03 Q1024
RJSA 150238Z 21009KT 2000 -SHSN FEW003 SCT005 BKN020 M02/M04 Q1024 RMK 1ST003 3ST005 5CU020 A3025
RJSA 150232Z 21008KT 3000 -SHSN FEW004 SCT010 BKN020 M02/M04 Q1024 RMK 1ST004 3ST010 5CU020 A3025
RJSA 150215Z 22009KT 6000 -SHSN FEW004 SCT010 BKN030 M02/M04 Q1024 RMK 1ST004 3ST010 5CU030 A3026
RJSA 150207Z 22009KT 4500 -SHSN FEW003 SCT010 BKN030 M02/M04 Q1024 RMK 1ST003 3ST010 5CU030 A3026
RJSA 150200Z 22009KT 2000 -SHSN FEW002 SCT005 BKN015 M02/M03 Q1024
RJSA 150140Z 22009KT 1400 R24/P1800N -SHSN FEW002 SCT004 BKN010 M02/M04 Q1025 RMK 1ST002 3ST004 5ST010 A3027
RJSA 150131Z 23009KT 1200 R24/1700D -SHSN FEW002 SCT003 BKN006 M02/M04 Q1025 RMK 1ST002 3ST003 5ST006 A3027
RJSA 150122Z 23009KT 1200 R24/1500VP1800D -SHSN FEW002 SCT005 BKN010 M02/M04 Q1025 RMK 1ST002 3ST005 5ST010 A3027
RJSA 150117Z 22007KT 2000 -SHSN FEW002 SCT005 BKN015 M02/M04 Q1025 RMK 1ST002 3ST005 5CU015 A3027
RJSA 150100Z 22009KT 1200 R24/P1800D -SHSN FEW002 SCT005 BKN008 M03/M04 Q1025
RJSA 150044Z 23010KT 1200 R24/1200VP1800U -SHSN FEW002 SCT005 BKN010 M03/M04 Q1025 RMK 1ST002 3ST005 5ST010 A3027
RJSA 150035Z 23009KT 0700 R24/0900VP1800D SHSN FEW002 SCT003 BKN006 M03/M04 Q1025 RMK 1ST002 3ST003 5ST006 A3027
RJSA 150030Z 22009KT 0600 R24/1000VP1800D SHSN FEW002 SCT004 BKN009 M03/M04 Q1025 RMK 1ST002 3ST004 5ST009 A3028
RJSA 150023Z 22009KT 0800 R24/P1800N SHSN FEW002 SCT005 BKN009 M03/M04 Q1025 RMK 1ST002 3ST005 5ST009 A3027
RJSA 150020Z 22009KT 1200 R24/P1800N -SHSN FEW002 SCT005 BKN010 M03/M04 Q1025 RMK 1ST002 3ST005 6ST010 A3027
RJSA 150014Z 22009KT 1500 R24/P1800N -SHSN FEW002 SCT005 BKN015 M03/M04 Q1025 RMK 1ST002 3ST005 6CU015 A3027
RJSA 150000Z 23010KT 1200 R24/P1800N -SHSN FEW002 SCT005 BKN015 M03/M04 Q1025
RJSA 142342Z 22009KT 1000 R24/1300VP1800U -SHSN FEW002 SCT004 BKN008 M03/M04 Q1025 RMK 1ST002 3ST004 6ST008 A3027
RJSA 142338Z 21009KT 0800 R24/1300VP1800D SHSN FEW002 SCT003 BKN008 M03/M04 Q1025 RMK 1ST002 3ST003 6ST008 A3027
RJSA 142332Z 21009KT 0800 R24/1500VP1800N SHSN FEW002 SCT003 BKN006 M03/M04 Q1025 RMK 1ST002 3ST003 6ST006 A3027
RJSA 142328Z 21009KT 0800 R24/P1800N SHSN FEW002 SCT005 BKN009 M03/M04 Q1025 RMK 1ST002 3ST005 6ST009 A3027
RJSA 142326Z 21009KT 1400 R24/P1800N -SHSN FEW002 SCT005 BKN010 M03/M04 Q1024 RMK 1ST002 3ST005 6ST010 A3026
RJSA 142309Z 21008KT 4500 -SHSN FEW002 SCT003 BKN020 M03/M04 Q1024 RMK 1ST002 3ST003 6CU020 A3026
RJSA 142300Z 22007KT 2500 R24/1800U -SHSN FEW002 SCT005 BKN015 M03/M04 Q1024
RJSA 142250Z 22008KT 0700 R24/0800V1400U SHSN FEW002 SCT003 BKN005 M03/M04 Q1024 RMK 1ST002 4ST003 6ST005 A3025
RJSA 142246Z 22008KT 0400 R24/0800V1100D SHSN VV003 M03/M04 Q1024 RMK A3025
RJSA 142242Z 21008KT 0400 R24/0800V1300D SHSN VV003 M03/M04 Q1024 RMK A3025
RJSA 142225Z 22007KT 0600 R24/1000V1500D SHSN FEW002 SCT003 BKN005 M03/M04 Q1024 RMK 1ST002 4ST003 6ST005 A3025
RJSA 142214Z 21008KT 0600 R24/0800V1100U SHSN FEW002 SCT003 BKN004 M03/M04 Q1024 RMK 1ST002 4ST003 6ST004 A3025
RJSA 142207Z 22008KT 0400 R24/0800V1600D SHSN VV003 M03/M04 Q1024 RMK A3025
RJSA 142200Z 22008KT 0900 R24/0900V1600U SHSN FEW002 SCT003 BKN006 M03/M04 Q1024
RJSA 142146Z 22009KT 0900 R24/P1800N SHSN FEW003 SCT005 BKN010 M04/M05 Q1024 RMK 1ST003 3ST005 5ST010 A3024
RJSA 142140Z 21009KT 1000 R24/P1800N -SHSN FEW003 SCT005 BKN010 M04/M05 Q1024 RMK 1ST003 3ST005 5ST010 A3024